createdAt,value
2019-03-31T00:00:29.824Z,12.97
2019-03-31T00:03:02.440Z,12.50
2019-03-31T00:05:32.607Z,11.40
2019-03-31T00:08:02.745Z,12.53
2019-03-31T00:10:35.384Z,12.03
2019-03-31T00:13:05.578Z,12.47
2019-03-31T00:15:35.757Z,12.57
2019-03-31T00:18:06.181Z,12.20
2019-03-31T00:20:37.515Z,11.80
2019-03-31T00:23:08.711Z,12.87
2019-03-31T00:25:40.536Z,12.97
2019-03-31T00:28:11.961Z,12.00
2019-03-31T00:30:43.655Z,12.20
2019-03-31T00:33:20.934Z,13.83
2019-03-31T00:35:51.308Z,12.10
2019-03-31T00:38:21.608Z,12.97
2019-03-31T00:40:53.297Z,12.33
2019-03-31T00:43:23.535Z,12.23
2019-03-31T00:45:53.609Z,11.90
2019-03-31T00:48:23.807Z,11.77
2019-03-31T00:50:54.986Z,11.57
2019-03-31T00:53:25.211Z,11.90
2019-03-31T00:55:56.650Z,11.37
2019-03-31T00:58:26.936Z,11.50
2019-03-31T01:01:17.976Z,11.37
2019-03-31T01:03:48.640Z,10.97
2019-03-31T01:06:19.232Z,11.37
2019-03-31T01:08:49.399Z,11.53
2019-03-31T01:11:25.608Z,11.50
2019-03-31T01:13:56.073Z,13.07
2019-03-31T01:16:27.281Z,11.53
2019-03-31T01:18:57.422Z,11.83
2019-03-31T01:21:30.248Z,12.67
2019-03-31T01:24:02.935Z,12.70
2019-03-31T01:26:33.060Z,11.90
2019-03-31T01:29:06.166Z,12.00
2019-03-31T01:31:49.581Z,12.17
2019-03-31T01:34:11.720Z,13.00
2019-03-31T01:36:42.036Z,11.67
2019-03-31T01:39:12.546Z,12.33
2019-03-31T01:41:42.580Z,11.87
2019-03-31T01:44:12.796Z,11.53
2019-03-31T01:46:42.997Z,13.43
2019-03-31T01:49:15.171Z,12.40
2019-03-31T01:51:45.211Z,10.83
2019-03-31T01:54:15.455Z,12.73
2019-03-31T01:56:45.873Z,12.53
2019-03-31T01:59:16.126Z,11.43
2019-03-31T02:01:46.411Z,12.03
2019-03-31T02:04:16.714Z,12.17
2019-03-31T02:06:50.204Z,11.77
2019-03-31T02:09:20.600Z,11.90
2019-03-31T02:11:50.756Z,11.23
2019-03-31T02:14:21.043Z,12.73
2019-03-31T02:16:51.166Z,11.33
2019-03-31T02:19:21.473Z,13.17
2019-03-31T02:21:57.440Z,11.50
2019-03-31T02:24:27.621Z,12.37
2019-03-31T02:26:57.927Z,11.63
2019-03-31T02:29:27.955Z,11.77
2019-03-31T02:31:58.098Z,11.20
2019-03-31T02:34:30.090Z,12.23
2019-03-31T02:37:01.647Z,12.73
2019-03-31T02:39:31.784Z,13.10
2019-03-31T02:42:02.013Z,11.77
2019-03-31T02:44:34.454Z,11.70
2019-03-31T02:47:05.590Z,11.17
2019-03-31T02:49:35.780Z,12.63
2019-03-31T02:52:06.276Z,12.17
2019-03-31T02:54:36.705Z,11.17
2019-03-31T02:57:09.679Z,12.23
2019-03-31T02:59:44.209Z,12.23
2019-03-31T03:02:15.333Z,12.10
2019-03-31T03:04:47.411Z,11.50
2019-03-31T03:07:20.004Z,12.13
2019-03-31T03:09:51.922Z,11.87
2019-03-31T03:12:25.409Z,13.03
2019-03-31T03:14:57.192Z,12.67
2019-03-31T03:17:29.482Z,12.20
2019-03-31T03:19:59.633Z,12.10
2019-03-31T03:22:31.992Z,12.37
2019-03-31T03:25:02.260Z,11.80
2019-03-31T03:27:32.605Z,12.30
2019-03-31T03:30:02.862Z,12.63
2019-03-31T03:32:32.884Z,12.03
2019-03-31T03:35:04.147Z,14.03
2019-03-31T03:37:34.231Z,11.93
2019-03-31T03:40:04.578Z,12.77
2019-03-31T03:42:34.906Z,12.53
2019-03-31T03:45:05.299Z,11.57
2019-03-31T03:47:35.441Z,12.03
2019-03-31T03:50:09.276Z,11.87
2019-03-31T03:52:39.501Z,11.83
2019-03-31T03:55:10.054Z,13.20
2019-03-31T03:57:40.236Z,11.43
2019-03-31T04:00:11.095Z,11.73
2019-03-31T04:02:41.330Z,12.87
2019-03-31T04:05:13.733Z,13.53
2019-03-31T04:07:44.034Z,13.37
2019-03-31T04:10:56.512Z,12.83
2019-03-31T04:13:26.585Z,13.27
2019-03-31T04:15:56.538Z,12.47
2019-03-31T04:18:26.729Z,13.30
2019-03-31T04:20:56.898Z,13.03
2019-03-31T04:23:27.080Z,12.87
2019-03-31T04:25:57.234Z,13.30
2019-03-31T04:28:27.466Z,12.50
2019-03-31T04:30:57.682Z,13.30
2019-03-31T04:33:27.884Z,13.50
2019-03-31T04:35:58.127Z,12.17
2019-03-31T04:38:29.298Z,12.20
2019-03-31T04:40:59.536Z,12.90
2019-03-31T04:43:29.705Z,12.80
2019-03-31T04:46:02.872Z,12.60
2019-03-31T04:48:35.383Z,13.57
2019-03-31T04:51:08.563Z,11.80
2019-03-31T04:53:39.057Z,12.67
2019-03-31T04:56:09.135Z,12.03
2019-03-31T04:58:40.399Z,12.60
2019-03-31T05:01:14.782Z,13.90
2019-03-31T05:03:46.754Z,13.87
2019-03-31T05:06:17.028Z,12.83
2019-03-31T05:08:49.316Z,13.80
2019-03-31T05:11:19.730Z,14.17
2019-03-31T05:13:49.877Z,20.08
2019-03-31T05:16:22.385Z,15.87
2019-03-31T05:18:54.307Z,15.00
2019-03-31T05:21:24.286Z,15.33
2019-03-31T05:23:54.431Z,17.17
2019-03-31T05:26:24.555Z,15.77
2019-03-31T05:28:55.907Z,15.67
2019-03-31T05:31:25.986Z,16.57
2019-03-31T05:33:56.081Z,14.47
2019-03-31T05:36:26.090Z,14.83
2019-03-31T05:38:56.304Z,16.00
2019-03-31T05:41:28.398Z,15.70
2019-03-31T05:44:05.593Z,21.60
2019-03-31T05:46:31.553Z,15.70
2019-03-31T05:49:01.753Z,15.93
2019-03-31T05:51:34.319Z,16.30
2019-03-31T05:54:04.549Z,15.60
2019-03-31T05:56:36.652Z,16.10
2019-03-31T05:59:06.947Z,17.10
2019-03-31T06:01:37.113Z,19.53
2019-03-31T06:04:07.335Z,17.73
2019-03-31T06:06:40.556Z,17.93
2019-03-31T06:09:10.802Z,17.43
2019-03-31T06:11:41.061Z,15.97
2019-03-31T06:14:11.355Z,16.43
2019-03-31T06:16:41.512Z,16.67
2019-03-31T06:19:11.743Z,17.00
2019-03-31T06:21:43.259Z,17.37
2019-03-31T06:24:13.452Z,17.40
2019-03-31T06:26:43.703Z,17.03
2019-03-31T06:29:13.757Z,18.27
2019-03-31T06:31:46.621Z,18.13
2019-03-31T06:34:16.706Z,18.27
2019-03-31T06:36:46.976Z,18.00
2019-03-31T06:39:19.024Z,18.57
2019-03-31T06:41:49.127Z,17.20
2019-03-31T06:44:19.206Z,17.23
2019-03-31T06:46:50.618Z,18.53
2019-03-31T06:49:20.670Z,16.77
2019-03-31T06:51:50.914Z,16.73
2019-03-31T06:54:21.206Z,18.03
2019-03-31T06:56:52.836Z,17.37
2019-03-31T06:59:25.276Z,17.13
2019-03-31T07:01:56.897Z,17.90
2019-03-31T07:04:27.190Z,17.15
2019-03-31T07:06:58.946Z,15.70
2019-03-31T07:09:29.133Z,15.30
2019-03-31T07:11:59.546Z,15.00
2019-03-31T07:14:29.749Z,14.60
2019-03-31T07:17:00.120Z,14.03
2019-03-31T07:19:31.748Z,13.00
2019-03-31T07:22:03.342Z,15.47
2019-03-31T07:24:35.514Z,21.97
2019-03-31T07:27:07.031Z,11.10
2019-03-31T07:29:39.506Z,9.67
2019-03-31T07:32:10.873Z,9.30
2019-03-31T07:34:41.968Z,11.23
2019-03-31T07:37:12.173Z,8.87
2019-03-31T07:39:45.757Z,10.13
2019-03-31T07:42:15.242Z,8.93
2019-03-31T07:44:47.550Z,8.07
2019-03-31T07:47:18.650Z,9.70
2019-03-31T07:49:50.232Z,8.70
2019-03-31T07:52:20.418Z,10.53
2019-03-31T07:54:52.168Z,9.37
2019-03-31T07:57:22.263Z,8.87
2019-03-31T07:59:52.455Z,9.97
2019-03-31T08:02:24.496Z,9.23
2019-03-31T08:04:54.471Z,10.50
2019-03-31T08:07:25.611Z,10.00
2019-03-31T08:09:55.741Z,10.50
2019-03-31T08:12:25.993Z,10.30
2019-03-31T08:14:58.200Z,11.20
2019-03-31T08:17:30.535Z,9.17
2019-03-31T08:20:00.707Z,8.97
2019-03-31T08:22:32.556Z,8.20
2019-03-31T08:25:04.858Z,7.40
2019-03-31T08:27:35.111Z,8.23
2019-03-31T08:30:06.110Z,7.43
2019-03-31T08:32:40.992Z,9.63
2019-03-31T08:35:12.894Z,8.43
2019-03-31T08:37:45.419Z,6.80
2019-03-31T08:40:19.225Z,5.87
2019-03-31T08:42:49.322Z,5.97
2019-03-31T08:45:21.503Z,6.67
2019-03-31T08:47:53.724Z,7.43
2019-03-31T08:50:26.623Z,7.60
2019-03-31T08:52:58.177Z,7.53
2019-03-31T08:55:28.396Z,11.90
2019-03-31T08:58:02.161Z,7.00
2019-03-31T09:00:39.528Z,5.83
2019-03-31T09:03:13.694Z,6.53
2019-03-31T09:05:43.997Z,8.73
2019-03-31T09:08:14.226Z,6.27
2019-03-31T09:10:44.501Z,10.30
2019-03-31T09:13:16.729Z,11.37
2019-03-31T09:15:46.994Z,8.97
2019-03-31T09:18:20.423Z,8.40
2019-03-31T09:20:50.541Z,7.70
2019-03-31T09:23:22.197Z,7.10
2019-03-31T09:25:56.796Z,7.90
2019-03-31T09:28:27.044Z,7.23
2019-03-31T09:30:57.078Z,8.33
2019-03-31T09:33:27.262Z,7.43
2019-03-31T09:35:57.608Z,7.60
2019-03-31T09:38:27.952Z,6.90
2019-03-31T09:40:58.082Z,13.70
2019-03-31T09:43:28.237Z,11.87
2019-03-31T09:45:58.465Z,7.20
2019-03-31T09:48:28.598Z,7.03
2019-03-31T09:50:58.883Z,7.17
2019-03-31T09:53:30.913Z,5.87
2019-03-31T09:56:01.464Z,5.97
2019-03-31T09:58:32.859Z,6.27
2019-03-31T10:01:08.011Z,6.10
2019-03-31T10:03:36.377Z,5.93
2019-03-31T10:06:11.106Z,5.57
2019-03-31T10:08:38.646Z,5.80
2019-03-31T10:11:08.938Z,5.90
2019-03-31T10:13:39.070Z,5.50
2019-03-31T10:16:10.473Z,4.70
2019-03-31T10:18:40.719Z,5.03
2019-03-31T10:21:12.302Z,6.37
2019-03-31T10:23:42.314Z,5.90
2019-03-31T10:26:15.875Z,6.90
2019-03-31T10:28:44.240Z,5.70
2019-03-31T10:31:15.608Z,6.40
2019-03-31T10:33:45.864Z,6.90
2019-03-31T10:36:18.178Z,6.50
2019-03-31T10:38:49.651Z,6.03
2019-03-31T10:41:19.883Z,5.33
2019-03-31T10:43:50.075Z,6.40
2019-03-31T10:46:20.212Z,4.77
2019-03-31T10:48:51.636Z,4.63
2019-03-31T10:51:21.829Z,5.30
2019-03-31T10:53:51.867Z,4.93
2019-03-31T10:56:26.091Z,4.37
2019-03-31T10:58:56.318Z,4.40
2019-03-31T11:01:26.332Z,4.80
2019-03-31T11:03:56.628Z,5.50
2019-03-31T11:06:26.873Z,4.20
2019-03-31T11:08:57.039Z,4.90
2019-03-31T11:11:35.086Z,5.53
2019-03-31T11:14:12.402Z,5.43
2019-03-31T11:16:46.763Z,5.30
2019-03-31T11:19:16.902Z,5.37
2019-03-31T11:21:53.736Z,5.43
2019-03-31T11:24:26.037Z,8.23
2019-03-31T11:26:56.431Z,5.20
2019-03-31T11:29:27.867Z,5.33
2019-03-31T11:31:59.161Z,6.63
2019-03-31T11:34:32.175Z,6.77
2019-03-31T11:37:12.875Z,6.23
2019-03-31T11:39:35.888Z,6.43
2019-03-31T11:42:08.398Z,6.53
2019-03-31T11:44:38.542Z,6.00
2019-03-31T11:47:08.665Z,6.37
2019-03-31T11:49:40.928Z,6.90
2019-03-31T11:52:12.356Z,6.27
2019-03-31T11:54:49.864Z,6.77
2019-03-31T11:57:21.347Z,6.27
2019-03-31T11:59:54.481Z,6.77
2019-03-31T12:02:27.726Z,6.37
2019-03-31T12:05:00.149Z,6.50
2019-03-31T12:07:30.569Z,6.53
2019-03-31T12:10:00.730Z,6.00
2019-03-31T12:12:30.910Z,6.00
2019-03-31T12:15:04.391Z,6.77
2019-03-31T12:17:38.678Z,7.07
2019-03-31T12:20:11.132Z,5.93
2019-03-31T12:22:41.455Z,4.80
2019-03-31T12:25:11.838Z,7.27
2019-03-31T12:27:52.347Z,4.67
2019-03-31T12:30:30.350Z,6.33
2019-03-31T12:33:04.468Z,5.33
2019-03-31T12:35:38.386Z,5.43
2019-03-31T12:38:08.503Z,4.73
2019-03-31T12:40:38.859Z,5.60
2019-03-31T12:43:11.120Z,4.97
2019-03-31T12:45:43.609Z,5.60
2019-03-31T12:48:13.868Z,5.00
2019-03-31T12:50:46.411Z,7.07
2019-03-31T12:53:16.545Z,5.67
2019-03-31T12:55:59.456Z,5.33
2019-03-31T12:58:19.782Z,5.30
2019-03-31T13:00:51.481Z,5.63
2019-03-31T13:03:25.094Z,5.47
2019-03-31T13:05:55.365Z,10.87
2019-03-31T13:08:25.584Z,5.63
2019-03-31T13:10:55.771Z,6.20
2019-03-31T13:13:26.939Z,10.23
2019-03-31T13:16:00.854Z,5.90
2019-03-31T13:18:31.044Z,6.47
2019-03-31T13:21:03.572Z,5.63
2019-03-31T13:23:33.815Z,7.03
2019-03-31T13:26:04.058Z,5.87
2019-03-31T13:28:34.390Z,7.03
2019-03-31T13:31:04.678Z,18.37
2019-03-31T13:33:34.941Z,6.33
2019-03-31T13:36:05.170Z,6.90
2019-03-31T13:38:35.410Z,7.13
2019-03-31T13:41:05.811Z,6.37
2019-03-31T13:43:35.970Z,6.90
2019-03-31T13:46:06.067Z,7.00
2019-03-31T13:48:37.460Z,8.77
2019-03-31T13:51:08.696Z,7.63
2019-03-31T13:53:40.185Z,7.40
2019-03-31T13:56:15.666Z,6.57
2019-03-31T13:58:52.379Z,15.93
2019-03-31T14:01:26.661Z,6.90
2019-03-31T14:03:56.735Z,7.80
2019-03-31T14:06:31.658Z,6.93
2019-03-31T14:09:00.955Z,6.60
2019-03-31T14:11:33.813Z,8.37
2019-03-31T14:14:05.272Z,7.10
2019-03-31T14:16:35.567Z,7.43
2019-03-31T14:19:05.907Z,6.80
2019-03-31T14:21:40.317Z,6.80
2019-03-31T14:24:11.485Z,8.30
2019-03-31T14:26:41.725Z,7.30
2019-03-31T14:29:13.059Z,8.23
2019-03-31T14:31:43.279Z,12.37
2019-03-31T14:34:18.796Z,8.40
2019-03-31T14:36:52.346Z,7.80
2019-03-31T14:39:22.569Z,8.50
2019-03-31T14:41:53.099Z,6.87
2019-03-31T14:44:23.184Z,7.57
2019-03-31T14:46:54.597Z,12.53
2019-03-31T14:49:27.284Z,7.10
2019-03-31T14:52:00.965Z,6.80
2019-03-31T14:54:30.683Z,6.03
2019-03-31T14:57:02.090Z,5.67
2019-03-31T14:59:32.237Z,5.60
2019-03-31T15:02:02.423Z,6.43
2019-03-31T15:04:36.788Z,6.33
2019-03-31T15:07:09.708Z,6.90
2019-03-31T15:09:43.729Z,7.00
2019-03-31T15:12:16.086Z,6.30
2019-03-31T15:14:51.591Z,7.70
2019-03-31T15:17:21.797Z,7.50
2019-03-31T15:19:55.390Z,8.57
2019-03-31T15:22:27.750Z,7.10
2019-03-31T15:24:57.954Z,6.87
2019-03-31T15:27:30.465Z,7.10
2019-03-31T15:30:02.545Z,6.90
2019-03-31T15:32:34.065Z,6.27
2019-03-31T15:35:05.966Z,6.63
2019-03-31T15:37:36.128Z,7.00
2019-03-31T15:40:07.153Z,7.03
2019-03-31T15:42:39.407Z,6.87
2019-03-31T15:45:10.192Z,7.03
2019-03-31T15:47:40.343Z,7.67
2019-03-31T15:50:12.973Z,7.73
2019-03-31T15:52:43.136Z,7.17
2019-03-31T15:55:14.934Z,7.40
2019-03-31T15:57:46.986Z,8.13
2019-03-31T16:00:18.175Z,7.07
2019-03-31T16:02:48.462Z,6.27
2019-03-31T16:05:18.621Z,10.57
2019-03-31T16:07:50.295Z,8.57
2019-03-31T16:10:22.032Z,8.20
2019-03-31T16:12:51.765Z,8.43
2019-03-31T16:15:21.708Z,7.40
2019-03-31T16:17:51.342Z,11.00
2019-03-31T16:20:22.098Z,13.57
2019-03-31T16:22:51.672Z,11.67
2019-03-31T16:25:31.470Z,10.30
2019-03-31T16:28:01.057Z,11.30
2019-03-31T16:30:32.586Z,10.37
2019-03-31T16:33:06.993Z,11.40
2019-03-31T16:35:35.759Z,10.90
2019-03-31T16:38:06.978Z,10.80
2019-03-31T16:40:36.629Z,11.63
2019-03-31T16:43:08.557Z,15.00
2019-03-31T16:45:48.102Z,10.17
2019-03-31T16:48:17.841Z,9.80
2019-03-31T16:50:47.377Z,9.33
2019-03-31T16:53:21.908Z,8.90
2019-03-31T16:55:51.518Z,8.63
2019-03-31T16:58:21.102Z,11.83
2019-03-31T17:00:50.937Z,11.40
2019-03-31T17:03:20.609Z,11.70
2019-03-31T17:05:50.329Z,11.53
2019-03-31T17:08:20.069Z,11.97
2019-03-31T17:10:49.795Z,12.73
2019-03-31T17:13:19.413Z,12.00
2019-03-31T17:15:48.934Z,12.60
2019-03-31T17:18:18.701Z,12.73
2019-03-31T17:20:48.558Z,13.00
2019-03-31T17:23:20.640Z,15.50
2019-03-31T17:25:50.299Z,13.00
2019-03-31T17:28:20.005Z,13.23
2019-03-31T17:30:51.918Z,15.17
2019-03-31T17:33:30.374Z,14.60
2019-03-31T17:35:54.419Z,15.80
2019-03-31T17:38:25.031Z,16.23
2019-03-31T17:40:56.567Z,21.27
2019-03-31T17:43:26.348Z,21.83
2019-03-31T17:45:58.103Z,27.07
2019-03-31T17:48:27.765Z,62.27
2019-03-31T17:50:57.499Z,42.60
2019-03-31T17:53:26.979Z,30.10
2019-03-31T17:55:57.829Z,25.87
2019-03-31T17:58:27.380Z,31.37
2019-03-31T18:00:58.735Z,32.23
2019-03-31T18:03:28.362Z,32.57
2019-03-31T18:05:58.017Z,30.70
2019-03-31T18:08:29.080Z,26.27
2019-03-31T18:11:00.231Z,23.13
2019-03-31T18:13:29.847Z,24.07
2019-03-31T18:15:59.414Z,24.30
2019-03-31T18:18:42.773Z,21.97
2019-03-31T18:21:12.734Z,20.20
2019-03-31T18:23:46.360Z,14.97
2019-03-31T18:26:15.928Z,15.67
2019-03-31T18:28:45.714Z,14.10
2019-03-31T18:31:17.968Z,13.77
2019-03-31T18:33:51.041Z,14.80
2019-03-31T18:36:20.861Z,14.20
2019-03-31T18:38:50.578Z,15.27
2019-03-31T18:41:22.245Z,13.57
2019-03-31T18:43:52.128Z,13.07
2019-03-31T18:46:23.900Z,14.07
2019-03-31T18:48:53.423Z,15.60
2019-03-31T18:51:23.075Z,13.80
2019-03-31T18:54:20.861Z,15.93
2019-03-31T18:57:12.154Z,17.20
2019-03-31T19:00:06.876Z,14.40
2019-03-31T19:02:43.449Z,15.30
2019-03-31T19:05:43.811Z,16.50
2019-03-31T19:08:29.629Z,15.47
2019-03-31T19:11:15.009Z,18.13
2019-03-31T19:14:04.905Z,17.73
2019-03-31T19:16:56.262Z,17.57
2019-03-31T19:19:32.886Z,17.50
2019-03-31T19:22:24.515Z,15.23
2019-03-31T19:25:11.966Z,14.57
2019-03-31T19:27:58.632Z,13.03
2019-03-31T19:30:47.148Z,12.73
2019-03-31T19:33:38.501Z,12.87
2019-03-31T19:36:28.445Z,13.13
2019-03-31T19:39:19.938Z,12.83
2019-03-31T19:41:58.780Z,14.20
2019-03-31T19:44:51.184Z,13.97
2019-03-31T19:47:58.032Z,13.83
2019-03-31T19:50:39.396Z,14.90
2019-03-31T19:53:27.989Z,15.20
2019-03-31T19:56:25.241Z,14.77
2019-03-31T19:59:10.521Z,14.70
2019-03-31T20:01:44.822Z,14.77
2019-03-31T20:04:33.294Z,13.47
2019-03-31T20:07:21.306Z,13.23
2019-03-31T20:10:09.319Z,12.37
2019-03-31T20:13:09.834Z,11.10
2019-03-31T20:15:48.657Z,11.23
2019-03-31T20:18:52.318Z,12.10
2019-03-31T20:21:35.476Z,12.77
2019-03-31T20:24:39.161Z,12.30
2019-03-31T20:27:27.783Z,10.37
2019-03-31T20:30:25.224Z,11.90
2019-03-31T20:33:17.172Z,11.20
2019-03-31T20:36:24.087Z,12.70
2019-03-31T20:38:59.997Z,11.93
2019-03-31T20:41:47.538Z,12.17
2019-03-31T20:44:17.037Z,13.73
2019-03-31T20:46:46.605Z,13.13
2019-03-31T20:49:16.287Z,13.30
2019-03-31T20:51:45.951Z,13.03
2019-03-31T20:54:15.713Z,12.40
2019-03-31T20:56:45.348Z,12.67
2019-03-31T20:59:18.212Z,12.90
2019-03-31T21:01:47.888Z,11.30
2019-03-31T21:04:17.495Z,11.40
2019-03-31T21:06:47.126Z,10.80
2019-03-31T21:09:17.892Z,10.87
2019-03-31T21:11:52.221Z,11.87
2019-03-31T21:14:21.776Z,11.17
2019-03-31T21:16:54.758Z,10.30
2019-03-31T21:19:24.416Z,12.03
2019-03-31T21:21:55.353Z,9.90
2019-03-31T21:24:25.056Z,12.00
2019-03-31T21:26:56.387Z,11.23
2019-03-31T21:29:26.039Z,12.77
2019-03-31T21:31:58.621Z,11.53
2019-03-31T21:34:29.386Z,10.80
2019-03-31T21:37:00.405Z,11.40
2019-03-31T21:39:32.026Z,10.93
2019-03-31T21:42:01.564Z,10.90
2019-03-31T21:44:31.203Z,12.40
2019-03-31T21:47:04.557Z,11.30
2019-03-31T21:49:35.508Z,11.30
2019-03-31T21:52:06.218Z,10.77
2019-03-31T21:54:38.950Z,10.53
2019-03-31T21:57:09.755Z,11.30
2019-03-31T21:59:43.744Z,12.00
2019-03-31T22:02:15.220Z,11.97
2019-03-31T22:04:44.977Z,11.63
2019-03-31T22:07:14.661Z,11.60
2019-03-31T22:09:44.287Z,12.10
2019-03-31T22:12:14.954Z,11.27
2019-03-31T22:14:49.041Z,11.20
2019-03-31T22:17:18.355Z,10.93
2019-03-31T22:19:50.129Z,11.10
2019-03-31T22:22:19.833Z,11.40
2019-03-31T22:24:51.500Z,11.77
2019-03-31T22:27:21.158Z,10.60
2019-03-31T22:29:52.713Z,11.47
2019-03-31T22:32:22.275Z,10.80
2019-03-31T22:34:51.874Z,10.40
2019-03-31T22:37:23.513Z,10.97
2019-03-31T22:39:54.610Z,11.00
2019-03-31T22:42:24.229Z,10.97
2019-03-31T22:44:55.291Z,11.03
2019-03-31T22:47:26.688Z,11.67
2019-03-31T22:49:56.290Z,10.80
2019-03-31T22:52:25.761Z,9.77
2019-03-31T22:54:55.438Z,11.13
2019-03-31T22:57:25.155Z,10.43
2019-03-31T22:59:54.641Z,10.70
2019-03-31T23:02:26.478Z,11.10
2019-03-31T23:04:56.406Z,10.50
2019-03-31T23:07:25.909Z,11.37
2019-03-31T23:09:55.685Z,10.33
2019-03-31T23:12:25.264Z,10.47
2019-03-31T23:14:54.833Z,10.80
2019-03-31T23:17:28.985Z,10.40
2019-03-31T23:19:56.016Z,10.43
2019-03-31T23:22:27.736Z,10.37
2019-03-31T23:24:57.012Z,10.27
2019-03-31T23:27:32.225Z,11.20
2019-03-31T23:30:01.849Z,10.17
2019-03-31T23:32:31.430Z,10.63
2019-03-31T23:35:02.231Z,10.90
2019-03-31T23:37:33.491Z,10.90
2019-03-31T23:40:09.863Z,9.23
2019-03-31T23:42:39.644Z,10.57
2019-03-31T23:45:13.213Z,10.57
2019-03-31T23:47:45.904Z,10.10
2019-03-31T23:50:15.676Z,11.10
2019-03-31T23:52:45.255Z,11.17
2019-03-31T23:55:16.097Z,11.47
2019-03-31T23:57:45.741Z,10.93
